createdAt,value
2022-11-09T00:01:30.254Z,7.18
2022-11-09T00:04:00.234Z,10.45
2022-11-09T00:06:29.948Z,4.97
2022-11-09T00:09:04.111Z,6.53
2022-11-09T00:11:38.235Z,7.63
2022-11-09T00:14:07.203Z,7.35
2022-11-09T00:16:35.691Z,10.77
2022-11-09T00:19:04.280Z,15.52
2022-11-09T00:21:33.021Z,8.93
2022-11-09T00:24:01.639Z,11.23
2022-11-09T00:26:30.233Z,16.60
2022-11-09T00:29:00.123Z,12.57
2022-11-09T00:31:28.630Z,8.40
2022-11-09T00:33:58.835Z,10.90
2022-11-09T00:36:29.138Z,9.13
2022-11-09T00:38:59.706Z,12.02
2022-11-09T00:41:28.854Z,15.15
2022-11-09T00:43:58.846Z,11.35
2022-11-09T00:46:27.754Z,5.10
2022-11-09T00:48:56.831Z,7.07
2022-11-09T00:51:25.982Z,9.32
2022-11-09T00:53:55.406Z,7.07
2022-11-09T00:56:24.770Z,9.82
2022-11-09T00:58:55.784Z,7.43
2022-11-09T01:01:26.042Z,9.25
2022-11-09T01:03:54.726Z,13.63
2022-11-09T01:06:25.020Z,11.57
2022-11-09T01:08:54.218Z,14.30
2022-11-09T01:11:23.831Z,11.68
2022-11-09T01:13:54.880Z,17.67
2022-11-09T01:16:25.627Z,21.17
2022-11-09T01:18:55.999Z,21.38
2022-11-09T01:21:27.461Z,25.63
2022-11-09T01:23:56.508Z,26.65
2022-11-09T01:26:25.187Z,18.85
2022-11-09T01:28:53.868Z,25.40
2022-11-09T01:31:23.705Z,30.83
2022-11-09T01:33:53.350Z,26.75
2022-11-09T01:36:24.848Z,30.50
2022-11-09T01:38:53.702Z,23.55
2022-11-09T01:41:24.720Z,22.48
2022-11-09T01:44:12.596Z,25.73
2022-11-09T01:46:53.003Z,30.13
2022-11-09T01:49:40.814Z,24.23
2022-11-09T01:52:14.215Z,37.15
2022-11-09T01:54:49.059Z,23.15
2022-11-09T01:57:23.059Z,32.15
2022-11-09T02:00:00.608Z,27.40
2022-11-09T02:02:29.412Z,26.48
2022-11-09T02:05:02.768Z,22.90
2022-11-09T02:07:31.599Z,20.92
2022-11-09T02:10:08.097Z,15.55
2022-11-09T02:12:37.551Z,22.50
2022-11-09T02:15:11.433Z,11.98
2022-11-09T02:17:40.912Z,18.42
2022-11-09T02:20:13.668Z,13.02
2022-11-09T02:22:42.896Z,22.60
2022-11-09T02:25:13.556Z,19.65
2022-11-09T02:27:43.641Z,16.17
2022-11-09T02:30:13.541Z,21.38
2022-11-09T02:32:41.894Z,12.43
2022-11-09T02:35:12.285Z,16.20
2022-11-09T02:37:45.695Z,19.08
2022-11-09T02:40:21.687Z,22.05
2022-11-09T02:42:50.528Z,27.13
2022-11-09T02:45:19.379Z,20.85
2022-11-09T02:47:47.993Z,22.10
2022-11-09T02:50:18.132Z,18.85
2022-11-09T02:52:46.775Z,22.70
2022-11-09T02:55:15.757Z,24.35
2022-11-09T02:57:44.883Z,20.02
2022-11-09T03:00:16.518Z,26.42
2022-11-09T03:02:46.100Z,23.92
2022-11-09T03:05:18.300Z,20.15
2022-11-09T03:07:47.484Z,15.88
2022-11-09T03:10:16.238Z,17.58
2022-11-09T03:12:44.676Z,19.55
2022-11-09T03:15:15.923Z,14.77
2022-11-09T03:17:47.641Z,21.73
2022-11-09T03:20:18.591Z,19.85
2022-11-09T03:22:46.886Z,20.63
2022-11-09T03:25:15.639Z,38.55
2022-11-09T03:27:44.646Z,24.25
2022-11-09T03:30:14.812Z,34.42
2022-11-09T03:32:48.014Z,34.85
2022-11-09T03:35:20.094Z,26.98
2022-11-09T03:37:48.965Z,30.42
2022-11-09T03:40:18.237Z,29.17
2022-11-09T03:43:35.081Z,25.85
2022-11-09T03:46:03.665Z,24.43
2022-11-09T03:48:31.932Z,27.40
2022-11-09T03:51:01.656Z,28.55
2022-11-09T03:53:29.914Z,35.45
2022-11-09T03:55:58.970Z,21.98
2022-11-09T03:58:27.549Z,29.83
2022-11-09T04:00:55.894Z,26.42
2022-11-09T04:03:24.161Z,34.92
2022-11-09T04:05:52.474Z,27.08
2022-11-09T04:08:22.111Z,34.10
2022-11-09T04:10:50.431Z,20.70
2022-11-09T04:13:19.111Z,34.85
2022-11-09T04:15:47.643Z,31.52
2022-11-09T04:18:17.839Z,26.38
2022-11-09T04:20:46.446Z,27.58
2022-11-09T04:23:16.094Z,24.60
2022-11-09T04:25:46.084Z,36.45
2022-11-09T04:28:20.091Z,26.83
2022-11-09T04:30:48.734Z,35.83
2022-11-09T04:33:17.579Z,26.55
2022-11-09T04:35:46.367Z,25.35
2022-11-09T04:38:16.066Z,22.90
2022-11-09T04:40:45.760Z,25.55
2022-11-09T04:43:15.983Z,24.35
2022-11-09T04:45:44.574Z,44.40
2022-11-09T04:48:13.210Z,23.10
2022-11-09T04:50:41.873Z,30.55
2022-11-09T04:53:12.669Z,30.02
2022-11-09T04:55:42.487Z,22.70
2022-11-09T04:58:12.662Z,40.80
2022-11-09T05:00:40.934Z,29.27
2022-11-09T05:03:09.682Z,27.02
2022-11-09T05:05:44.050Z,38.10
2022-11-09T05:08:15.635Z,34.30
2022-11-09T05:10:44.769Z,38.92
2022-11-09T05:13:14.959Z,26.00
2022-11-09T05:15:43.565Z,39.38
2022-11-09T05:18:12.159Z,39.13
2022-11-09T05:20:40.672Z,40.38
2022-11-09T05:23:26.548Z,48.20
2022-11-09T05:25:54.871Z,50.05
2022-11-09T05:28:24.495Z,57.00
2022-11-09T05:30:52.755Z,43.10
2022-11-09T05:33:21.690Z,47.35
2022-11-09T05:35:50.533Z,47.22
2022-11-09T05:38:19.256Z,34.75
2022-11-09T05:40:49.478Z,53.92
2022-11-09T05:43:17.933Z,39.20
2022-11-09T05:45:48.099Z,37.88
2022-11-09T05:48:18.071Z,45.42
2022-11-09T05:50:46.616Z,48.55
2022-11-09T05:53:33.732Z,50.05
2022-11-09T05:56:07.535Z,46.33
2022-11-09T05:58:38.652Z,40.25
2022-11-09T06:01:11.302Z,65.60
2022-11-09T06:03:44.415Z,45.88
2022-11-09T06:06:15.684Z,59.67
2022-11-09T06:08:44.430Z,55.10
2022-11-09T06:11:19.872Z,52.70
2022-11-09T06:13:52.532Z,68.63
2022-11-09T06:16:22.297Z,53.03
2022-11-09T06:18:51.007Z,35.40
2022-11-09T06:21:19.589Z,47.42
2022-11-09T06:23:48.165Z,45.22
2022-11-09T06:26:17.268Z,39.83
2022-11-09T06:28:45.856Z,36.33
2022-11-09T06:31:16.841Z,44.83
2022-11-09T06:33:46.687Z,59.50
2022-11-09T06:36:15.474Z,42.33
2022-11-09T06:38:43.948Z,40.92
2022-11-09T06:41:12.746Z,30.50
2022-11-09T06:43:41.523Z,33.75
2022-11-09T06:46:11.349Z,57.38
2022-11-09T06:48:40.307Z,50.90
2022-11-09T06:51:11.237Z,48.17
2022-11-09T06:53:41.405Z,31.25
2022-11-09T06:56:10.188Z,31.77
2022-11-09T06:58:38.823Z,35.10
2022-11-09T07:01:11.242Z,35.10
2022-11-09T07:03:40.521Z,35.83
2022-11-09T07:06:12.518Z,27.17
2022-11-09T07:08:41.834Z,32.08
2022-11-09T07:11:13.334Z,30.98
2022-11-09T07:13:41.709Z,25.48
2022-11-09T07:16:11.954Z,25.20
2022-11-09T07:18:40.310Z,27.10
2022-11-09T07:21:13.980Z,23.92
2022-11-09T07:23:43.389Z,25.15
2022-11-09T07:26:11.994Z,20.33
2022-11-09T07:28:40.787Z,19.63
2022-11-09T07:31:09.399Z,17.10
2022-11-09T07:33:37.968Z,19.15
2022-11-09T07:36:07.787Z,18.67
2022-11-09T07:38:37.388Z,19.17
2022-11-09T07:41:05.914Z,22.83
2022-11-09T07:43:34.149Z,17.90
2022-11-09T07:46:05.924Z,17.65
2022-11-09T07:48:34.562Z,10.20
2022-11-09T07:51:03.567Z,16.67
2022-11-09T07:53:32.324Z,16.88
2022-11-09T07:56:04.338Z,12.48
2022-11-09T07:58:34.241Z,10.48
2022-11-09T08:01:02.532Z,12.27
2022-11-09T08:03:30.732Z,13.95
2022-11-09T08:05:59.098Z,11.50
2022-11-09T08:08:27.337Z,6.57
2022-11-09T08:10:58.496Z,11.48
2022-11-09T08:13:28.159Z,9.13
2022-11-09T08:15:56.739Z,13.07
2022-11-09T08:18:25.110Z,14.02
2022-11-09T08:20:53.361Z,6.80
2022-11-09T08:23:22.590Z,19.02
2022-11-09T08:25:51.735Z,10.45
2022-11-09T08:28:20.362Z,10.93
2022-11-09T08:30:57.588Z,7.47
2022-11-09T08:33:27.397Z,8.45
2022-11-09T08:35:56.362Z,13.90
2022-11-09T08:38:24.770Z,11.40
2022-11-09T08:40:58.776Z,12.10
2022-11-09T08:43:27.528Z,14.70
2022-11-09T08:45:57.202Z,12.50
2022-11-09T08:48:25.840Z,9.65
2022-11-09T08:50:55.816Z,12.68
2022-11-09T08:53:24.989Z,10.13
2022-11-09T08:55:53.774Z,22.63
2022-11-09T08:58:22.909Z,12.65
2022-11-09T09:00:51.442Z,8.20
2022-11-09T09:03:21.084Z,9.27
2022-11-09T09:05:49.274Z,11.85
2022-11-09T09:08:21.885Z,19.50
2022-11-09T09:10:50.970Z,12.25
2022-11-09T09:13:22.534Z,9.68
2022-11-09T09:15:51.466Z,6.72
2022-11-09T09:18:21.556Z,9.45
2022-11-09T09:20:50.423Z,9.45
2022-11-09T09:23:19.257Z,6.05
2022-11-09T09:25:48.303Z,4.95
2022-11-09T09:28:16.565Z,7.30
2022-11-09T09:30:45.186Z,4.75
2022-11-09T09:33:13.385Z,6.25
2022-11-09T09:35:43.033Z,3.03
2022-11-09T09:38:11.373Z,9.35
2022-11-09T09:40:49.617Z,16.35
2022-11-09T09:43:27.881Z,8.63
2022-11-09T09:45:57.026Z,6.35
2022-11-09T09:48:36.734Z,14.55
2022-11-09T09:51:14.586Z,5.30
2022-11-09T09:53:48.773Z,4.25
2022-11-09T09:56:21.845Z,6.82
2022-11-09T09:58:57.797Z,10.48
2022-11-09T10:01:36.122Z,11.43
2022-11-09T10:04:04.723Z,11.77
2022-11-09T10:06:49.490Z,5.20
2022-11-09T10:09:33.066Z,5.00
2022-11-09T10:12:12.216Z,4.68
2022-11-09T10:15:07.434Z,5.10
2022-11-09T10:17:50.227Z,4.43
2022-11-09T10:20:52.912Z,3.70
2022-11-09T10:23:44.796Z,2.60
2022-11-09T10:26:19.979Z,5.43
2022-11-09T10:31:47.899Z,2.10
2022-11-09T10:34:20.768Z,1.88
2022-11-09T10:37:04.436Z,9.50
2022-11-09T10:39:45.339Z,9.20
2022-11-09T10:42:32.591Z,7.47
2022-11-09T10:45:30.475Z,7.00
2022-11-09T10:48:33.261Z,6.13
2022-11-09T10:51:40.579Z,7.38
2022-11-09T10:54:31.194Z,3.83
2022-11-09T10:57:22.905Z,1.83
2022-11-09T11:00:17.593Z,3.67
2022-11-09T11:03:16.459Z,5.32
2022-11-09T11:06:05.882Z,9.07
2022-11-09T11:09:14.519Z,6.35
2022-11-09T11:12:16.245Z,7.63
2022-11-09T11:15:04.842Z,4.05
2022-11-09T11:18:01.166Z,6.07
2022-11-09T11:20:48.726Z,2.80
2022-11-09T11:23:36.966Z,3.03
2022-11-09T11:26:35.570Z,5.53
2022-11-09T11:29:38.632Z,3.03
2022-11-09T11:32:27.320Z,1.80
2022-11-09T11:35:16.605Z,3.95
2022-11-09T11:38:21.151Z,4.53
2022-11-09T11:41:31.695Z,3.05
2022-11-09T11:44:42.874Z,5.65
2022-11-09T11:47:43.024Z,2.60
2022-11-09T11:50:42.239Z,0.95
2022-11-09T11:53:48.883Z,3.38
2022-11-09T11:56:43.271Z,2.78
2022-11-09T11:59:56.896Z,6.03
2022-11-09T12:03:14.227Z,2.13
2022-11-09T12:06:44.326Z,2.85
2022-11-09T12:09:54.582Z,4.78
2022-11-09T12:12:53.701Z,4.63
2022-11-09T12:15:53.201Z,3.45
2022-11-09T12:18:56.706Z,8.40
2022-11-09T12:21:52.543Z,1.55
2022-11-09T12:24:47.762Z,5.13
2022-11-09T12:28:07.535Z,3.97
2022-11-09T12:31:10.298Z,6.82
2022-11-09T12:34:04.544Z,1.02
2022-11-09T12:36:56.655Z,4.45
2022-11-09T12:39:47.436Z,3.28
2022-11-09T12:42:44.481Z,2.90
2022-11-09T12:45:35.327Z,3.08
2022-11-09T12:48:25.748Z,4.97
2022-11-09T12:51:14.234Z,7.18
2022-11-09T12:54:03.008Z,9.27
2022-11-09T12:56:56.288Z,2.17
2022-11-09T13:00:30.225Z,3.25
2022-11-09T13:03:27.461Z,4.30
2022-11-09T13:06:20.632Z,4.18
2022-11-09T13:09:20.471Z,5.20
2022-11-09T13:12:19.416Z,6.35
2022-11-09T13:15:27.862Z,10.13
2022-11-09T13:18:27.275Z,9.60
2022-11-09T13:21:40.467Z,1.48
2022-11-09T13:24:56.397Z,9.88
2022-11-09T13:27:45.654Z,3.72
2022-11-09T13:30:43.846Z,9.15
2022-11-09T13:33:31.707Z,5.40
2022-11-09T13:36:22.390Z,3.03
2022-11-09T13:39:31.806Z,3.53
2022-11-09T13:42:34.668Z,4.72
2022-11-09T13:45:30.437Z,4.97
2022-11-09T13:48:35.118Z,3.15
2022-11-09T13:51:26.859Z,5.00
2022-11-09T13:57:10.113Z,3.50
2022-11-09T14:00:00.801Z,1.52
2022-11-09T14:02:55.896Z,8.23
2022-11-09T14:05:45.310Z,4.45
2022-11-09T14:08:40.394Z,6.45
2022-11-09T14:11:55.868Z,4.70
2022-11-09T14:15:08.765Z,5.22
2022-11-09T14:18:11.991Z,2.85
2022-11-09T14:21:14.363Z,9.38
2022-11-09T14:24:04.898Z,13.27
2022-11-09T14:27:16.806Z,4.55
2022-11-09T14:30:20.386Z,3.47
2022-11-09T14:33:23.093Z,2.90
2022-11-09T14:36:13.937Z,2.28
2022-11-09T14:39:03.524Z,8.70
2022-11-09T14:41:51.609Z,1.35
2022-11-09T14:44:43.836Z,6.35
2022-11-09T14:47:35.259Z,6.13
2022-11-09T14:50:25.955Z,4.32
2022-11-09T14:53:18.995Z,3.08
2022-11-09T14:56:09.199Z,1.90
2022-11-09T14:58:58.191Z,5.03
2022-11-09T15:01:59.895Z,1.33
2022-11-09T15:04:56.891Z,2.95
2022-11-09T15:07:48.035Z,6.82
2022-11-09T15:10:36.019Z,4.13
2022-11-09T15:13:32.626Z,3.40
2022-11-09T15:16:24.145Z,4.10
2022-11-09T15:19:31.579Z,1.95
2022-11-09T15:22:48.000Z,4.40
2022-11-09T15:25:37.793Z,3.08
2022-11-09T15:28:27.400Z,1.27
2022-11-09T15:31:18.804Z,3.03
2022-11-09T15:34:23.799Z,3.35
2022-11-09T15:37:28.240Z,6.57
2022-11-09T15:40:21.564Z,3.97
2022-11-09T15:43:08.464Z,11.77
2022-11-09T15:45:56.493Z,10.35
2022-11-09T15:48:46.346Z,4.45
2022-11-09T15:51:33.880Z,2.58
2022-11-09T15:54:22.029Z,3.58
2022-11-09T15:57:18.672Z,1.45
2022-11-09T16:00:11.342Z,0.93
2022-11-09T16:03:01.161Z,4.63
2022-11-09T16:05:48.703Z,2.70
2022-11-09T16:08:35.308Z,2.28
2022-11-09T16:11:22.106Z,1.60
2022-11-09T16:14:10.461Z,1.15
2022-11-09T16:16:57.675Z,0.70
2022-11-09T16:19:44.359Z,3.65
2022-11-09T16:22:32.824Z,1.02
2022-11-09T16:25:20.378Z,1.95
2022-11-09T16:28:07.511Z,3.88
2022-11-09T16:30:55.847Z,2.08
2022-11-09T16:33:43.247Z,5.50
2022-11-09T16:36:31.201Z,0.77
2022-11-09T16:39:18.575Z,4.70
2022-11-09T16:42:10.145Z,5.03
2022-11-09T16:45:01.429Z,5.35
2022-11-09T16:47:53.799Z,2.65
2022-11-09T16:50:40.833Z,1.50
2022-11-09T16:53:27.854Z,1.08
2022-11-09T16:56:14.863Z,2.67
2022-11-09T16:59:02.423Z,5.03
2022-11-09T17:01:53.486Z,1.48
2022-11-09T17:04:42.252Z,1.58
2022-11-09T17:07:29.770Z,7.00
2022-11-09T17:10:17.216Z,1.65
2022-11-09T17:13:04.427Z,1.35
2022-11-09T17:15:53.338Z,5.18
2022-11-09T17:18:40.563Z,2.60
2022-11-09T17:21:30.349Z,3.25
2022-11-09T17:24:17.840Z,3.78
2022-11-09T17:27:04.857Z,2.50
2022-11-09T17:29:52.708Z,3.67
2022-11-09T17:32:41.003Z,2.33
2022-11-09T17:35:28.339Z,3.60
2022-11-09T17:38:16.707Z,2.13
2022-11-09T17:41:05.126Z,2.33
2022-11-09T17:43:51.944Z,3.45
2022-11-09T17:46:39.029Z,1.00
2022-11-09T17:49:26.217Z,2.00
2022-11-09T17:52:13.030Z,5.88
2022-11-09T17:55:01.654Z,4.53
2022-11-09T17:57:48.642Z,5.00
2022-11-09T18:00:35.436Z,1.70
2022-11-09T18:03:23.077Z,4.40
2022-11-09T18:06:13.217Z,2.03
2022-11-09T18:09:34.451Z,4.55
2022-11-09T18:12:09.182Z,6.18
2022-11-09T18:14:56.119Z,1.65
2022-11-09T18:17:43.855Z,3.83
2022-11-09T18:20:30.802Z,3.20
2022-11-09T18:23:18.134Z,2.20
2022-11-09T18:26:06.229Z,2.33
2022-11-09T18:28:56.404Z,2.17
2022-11-09T18:31:43.349Z,2.97
2022-11-09T18:34:30.511Z,7.20
2022-11-09T18:37:17.576Z,1.85
2022-11-09T18:40:05.070Z,3.20
2022-11-09T18:42:52.033Z,1.23
2022-11-09T18:45:40.299Z,4.72
2022-11-09T18:48:27.986Z,7.72
2022-11-09T18:51:14.887Z,4.10
2022-11-09T18:54:01.944Z,4.90
2022-11-09T18:56:49.190Z,3.85
2022-11-09T18:59:39.978Z,2.15
2022-11-09T19:02:28.419Z,8.40
2022-11-09T19:05:15.746Z,5.95
2022-11-09T19:08:02.447Z,13.32
2022-11-09T19:10:49.524Z,4.88
2022-11-09T19:13:36.818Z,8.45
2022-11-09T19:16:25.237Z,4.78
2022-11-09T19:19:15.880Z,1.65
2022-11-09T19:22:02.793Z,4.53
2022-11-09T19:24:50.166Z,4.60
2022-11-09T19:27:37.185Z,7.30
2022-11-09T19:30:25.812Z,3.55
2022-11-09T19:33:12.933Z,6.13
2022-11-09T19:36:28.510Z,5.82
2022-11-09T19:39:08.577Z,3.45
2022-11-09T19:41:55.997Z,6.20
2022-11-09T19:44:43.118Z,15.57
2022-11-09T19:47:30.075Z,6.88
2022-11-09T19:50:17.476Z,10.38
2022-11-09T19:53:05.327Z,9.65
2022-11-09T19:55:52.391Z,2.53
2022-11-09T19:58:39.554Z,5.75
2022-11-09T20:01:27.373Z,4.13
2022-11-09T20:04:14.151Z,4.40
2022-11-09T20:07:01.431Z,4.90
2022-11-09T20:09:49.753Z,3.67
2022-11-09T20:12:51.900Z,10.32
2022-11-09T20:15:38.947Z,3.97
2022-11-09T20:18:26.382Z,3.63
2022-11-09T20:21:13.272Z,22.10
2022-11-09T20:24:00.297Z,4.70
2022-11-09T20:26:48.356Z,6.13
2022-11-09T20:29:35.850Z,5.90
2022-11-09T20:32:23.772Z,10.00
2022-11-09T20:35:10.898Z,4.03
2022-11-09T20:37:58.157Z,4.38
2022-11-09T20:40:45.266Z,4.30
2022-11-09T20:43:33.587Z,10.68
2022-11-09T20:46:24.459Z,7.70
2022-11-09T20:49:11.966Z,6.65
2022-11-09T20:51:59.411Z,9.85
2022-11-09T20:54:46.136Z,3.15
2022-11-09T20:57:33.155Z,6.88
2022-11-09T21:00:24.516Z,9.35
2022-11-09T21:03:11.838Z,3.45
2022-11-09T21:05:59.396Z,5.25
2022-11-09T21:08:47.445Z,8.90
2022-11-09T21:11:57.300Z,15.77
2022-11-09T21:14:44.465Z,10.75
2022-11-09T21:17:33.093Z,8.73
2022-11-09T21:20:20.048Z,5.80
2022-11-09T21:23:25.267Z,8.90
2022-11-09T21:26:29.860Z,8.47
2022-11-09T21:29:37.537Z,1.70
2022-11-09T21:32:25.093Z,5.05
2022-11-09T21:35:13.162Z,5.53
2022-11-09T21:38:00.131Z,5.82
2022-11-09T21:40:47.001Z,10.15
2022-11-09T21:43:34.065Z,8.50
2022-11-09T21:46:20.951Z,2.53
2022-11-09T21:49:10.207Z,9.27
2022-11-09T21:51:58.820Z,5.60
2022-11-09T21:54:45.986Z,10.90
2022-11-09T21:57:32.922Z,3.05
2022-11-09T22:00:20.348Z,3.10
2022-11-09T22:03:07.381Z,6.15
2022-11-09T22:05:54.089Z,6.63
2022-11-09T22:08:42.701Z,13.57
2022-11-09T22:11:43.768Z,4.10
2022-11-09T22:14:47.817Z,8.07
2022-11-09T22:17:34.708Z,13.63
2022-11-09T22:20:39.363Z,4.18
2022-11-09T22:23:26.561Z,6.13
2022-11-09T22:26:14.862Z,12.75
2022-11-09T22:29:02.170Z,3.38
2022-11-09T22:31:49.102Z,11.50
2022-11-09T22:34:36.095Z,8.35
2022-11-09T22:37:23.043Z,16.45
2022-11-09T22:40:11.305Z,14.88
2022-11-09T22:42:59.393Z,10.20
2022-11-09T22:45:46.416Z,6.85
2022-11-09T22:48:33.578Z,9.20
2022-11-09T22:51:20.943Z,5.03
2022-11-09T22:54:08.588Z,4.00
2022-11-09T22:56:55.826Z,7.93
2022-11-09T22:59:43.654Z,11.73
2022-11-09T23:02:30.793Z,13.20
2022-11-09T23:05:18.183Z,6.75
2022-11-09T23:08:05.782Z,9.07
2022-11-09T23:10:55.917Z,5.68
2022-11-09T23:13:43.475Z,9.75
2022-11-09T23:16:31.612Z,9.15
2022-11-09T23:19:17.695Z,9.73
2022-11-09T23:22:04.909Z,12.88
2022-11-09T23:25:09.270Z,4.90
2022-11-09T23:27:56.804Z,2.28
2022-11-09T23:30:44.132Z,5.60
2022-11-09T23:33:32.267Z,12.80
2022-11-09T23:36:19.678Z,4.55
2022-11-09T23:39:07.050Z,6.95
2022-11-09T23:41:53.959Z,9.38
2022-11-09T23:44:40.573Z,7.60
2022-11-09T23:47:27.684Z,3.67
2022-11-09T23:50:15.939Z,7.47
2022-11-09T23:53:03.065Z,4.25
2022-11-09T23:55:50.381Z,8.52
2022-11-09T23:58:37.788Z,7.07
